Time;durP1;ratioP1;P1;durP2;ratioP2;P2;SDS_P1;SDS_P2;PMS_P1;PMS_P2;Temp;Humidity;BMP_temperature;BMP_pressure;BME280_temperature;BME280_humidity;BME280_pressure;Samples;Min_cycle;Max_cycle;Signal;HPM_P1;HPM_P2
2021/11/16 00:00:42;;;;;;;63.83;41.67;;;;;;;;;;5052739;28;20433;-81
2021/11/16 00:03:10;;;;;;;50.27;40.00;;;;;;;;;;5034885;28;20231;-81
2021/11/16 00:05:38;;;;;;;58.45;42.72;;;;;;;;;;5053097;28;20455;-81
2021/11/16 00:08:07;;;;;;;64.10;50.78;;;;;;;;;;5052834;28;20196;-82
2021/11/16 00:10:35;;;;;;;43.97;37.50;;;;;;;;;;5053030;28;20217;-81
2021/11/16 00:13:04;;;;;;;52.17;39.90;;;;;;;;;;5052880;28;20185;-81
2021/11/16 00:15:31;;;;;;;51.38;39.30;;;;;;;;;;5052979;28;20200;-81
2021/11/16 00:17:59;;;;;;;49.47;39.90;;;;;;;;;;5052508;28;20195;-81
2021/11/16 00:20:26;;;;;;;50.38;39.72;;;;;;;;;;5053047;28;20191;-81
2021/11/16 00:22:54;;;;;;;49.85;38.67;;;;;;;;;;5052432;28;20219;-81
2021/11/16 00:25:31;;;;;;;52.08;39.65;;;;;;;;;;5052515;28;20544;-81
2021/11/16 00:27:58;;;;;;;55.63;42.75;;;;;;;;;;5052558;28;20227;-81
2021/11/16 00:30:26;;;;;;;53.83;41.60;;;;;;;;;;5052284;28;20233;-81
2021/11/16 00:32:53;;;;;;;51.90;40.90;;;;;;;;;;5052721;28;20421;-80
2021/11/16 00:35:21;;;;;;;51.38;40.67;;;;;;;;;;5052780;28;20184;-81
2021/11/16 00:37:48;;;;;;;52.47;40.20;;;;;;;;;;5052467;28;20196;-80
2021/11/16 00:40:19;;;;;;;49.22;39.58;;;;;;;;;;5052676;28;20422;-81
2021/11/16 00:42:48;;;;;;;53.10;43.37;;;;;;;;;;5052160;28;20234;-81
2021/11/16 00:45:16;;;;;;;52.25;38.58;;;;;;;;;;5052354;28;20441;-81
2021/11/16 00:47:46;;;;;;;59.05;41.50;;;;;;;;;;5052225;28;20188;-81
2021/11/16 00:50:15;;;;;;;54.20;40.87;;;;;;;;;;5052634;28;20227;-82
2021/11/16 00:52:43;;;;;;;53.17;40.45;;;;;;;;;;5052215;28;20576;-80
2021/11/16 00:55:10;;;;;;;52.87;40.27;;;;;;;;;;5052322;28;20198;-81
2021/11/16 00:57:38;;;;;;;55.50;42.45;;;;;;;;;;5052445;28;20416;-81
2021/11/16 01:00:09;;;;;;;47.07;40.17;;;;;;;;;;5052536;28;20188;-81
2021/11/16 01:02:36;;;;;;;56.60;42.30;;;;;;;;;;5052336;28;20474;-81
2021/11/16 01:05:04;;;;;;;55.28;38.95;;;;;;;;;;5052457;28;20476;-81
2021/11/16 01:07:32;;;;;;;46.75;38.55;;;;;;;;;;5052275;28;20283;-81
2021/11/16 01:09:59;;;;;;;44.47;37.70;;;;;;;;;;5052219;28;20219;-80
2021/11/16 01:12:27;;;;;;;48.30;37.67;;;;;;;;;;5052184;28;20419;-80
2021/11/16 01:14:57;;;;;;;45.50;37.53;;;;;;;;;;5052085;28;20657;-81
2021/11/16 01:17:25;;;;;;;42.60;36.47;;;;;;;;;;5052957;28;20184;-82
2021/11/16 01:19:53;;;;;;;43.20;36.20;;;;;;;;;;5038049;28;20607;-81
2021/11/16 01:22:21;;;;;;;46.15;36.78;;;;;;;;;;5056014;28;20456;-82
2021/11/16 01:24:48;;;;;;;49.70;40.35;;;;;;;;;;5055914;28;20192;-80
2021/11/16 01:27:18;;;;;;;43.03;37.57;;;;;;;;;;5055783;28;20197;-82
2021/11/16 01:29:46;;;;;;;46.03;38.50;;;;;;;;;;5056070;28;20413;-82
2021/11/16 01:32:26;;;;;;;48.20;38.25;;;;;;;;;;5055552;28;20881;-82
2021/11/16 01:34:55;;;;;;;34.95;29.98;;;;;;;;;;5055695;28;20282;-81
2021/11/16 01:37:23;;;;;;;41.70;35.08;;;;;;;;;;5055522;28;20207;-81
2021/11/16 01:39:50;;;;;;;48.85;37.05;;;;;;;;;;5055878;28;20198;-82
2021/11/16 01:42:18;;;;;;;42.30;38.17;;;;;;;;;;5055356;28;20219;-81
2021/11/16 01:44:45;;;;;;;53.53;45.08;;;;;;;;;;5055626;28;20207;-81
2021/11/16 01:47:13;;;;;;;329.25;129.93;;;;;;;;;;5037449;28;20204;-81
2021/11/16 01:49:41;;;;;;;45.70;37.10;;;;;;;;;;5037711;28;20635;-82
2021/11/16 01:52:10;;;;;;;44.63;36.67;;;;;;;;;;5037687;28;20441;-81
2021/11/16 01:54:38;;;;;;;43.38;36.45;;;;;;;;;;5055269;28;21196;-81
2021/11/16 01:57:06;;;;;;;44.50;37.40;;;;;;;;;;5055515;28;20190;-81
2021/11/16 01:59:33;;;;;;;45.40;38.13;;;;;;;;;;5055415;28;20196;-80
2021/11/16 02:02:01;;;;;;;39.70;35.20;;;;;;;;;;5055374;28;20193;-82
2021/11/16 02:04:29;;;;;;;41.25;36.80;;;;;;;;;;5055070;28;20227;-81
2021/11/16 02:06:56;;;;;;;42.95;36.38;;;;;;;;;;5055222;28;20278;-82
2021/11/16 02:09:25;;;;;;;43.37;36.73;;;;;;;;;;5054958;28;20193;-82
2021/11/16 02:11:53;;;;;;;50.70;37.83;;;;;;;;;;5055171;28;20432;-80
2021/11/16 02:14:20;;;;;;;50.75;38.20;;;;;;;;;;5055039;28;20418;-82
2021/11/16 02:16:48;;;;;;;43.83;37.60;;;;;;;;;;5054684;28;20190;-80
2021/11/16 02:19:21;;;;;;;47.20;37.88;;;;;;;;;;5055141;28;20427;-81
2021/11/16 02:21:51;;;;;;;38.83;34.63;;;;;;;;;;5054900;28;20194;-81
2021/11/16 02:24:19;;;;;;;36.88;33.03;;;;;;;;;;5054898;28;20508;-82
2021/11/16 02:26:46;;;;;;;36.88;32.35;;;;;;;;;;5054976;28;20185;-81
2021/11/16 02:29:14;;;;;;;39.20;35.17;;;;;;;;;;5053637;28;20195;-82
2021/11/16 02:31:43;;;;;;;37.58;33.72;;;;;;;;;;5054872;28;20190;-81
2021/11/16 02:34:12;;;;;;;40.20;35.33;;;;;;;;;;5037142;28;20229;-81
2021/11/16 02:36:41;;;;;;;39.07;35.00;;;;;;;;;;5054783;28;20446;-81
2021/11/16 02:39:12;;;;;;;42.38;35.33;;;;;;;;;;5054357;28;20892;-82
2021/11/16 02:41:41;;;;;;;31.27;28.08;;;;;;;;;;5054344;28;20239;-82
2021/11/16 02:44:09;;;;;;;31.83;28.77;;;;;;;;;;5054531;28;20222;-81
2021/11/16 02:46:37;;;;;;;38.97;31.85;;;;;;;;;;5054345;28;20202;-82
2021/11/16 02:49:04;;;;;;;36.88;33.15;;;;;;;;;;5054574;28;20249;-82
2021/11/16 02:51:34;;;;;;;46.90;35.13;;;;;;;;;;5054135;28;20796;-81
2021/11/16 02:54:02;;;;;;;37.17;33.05;;;;;;;;;;5054033;28;20815;-81
2021/11/16 02:56:31;;;;;;;36.10;32.38;;;;;;;;;;5054021;28;20191;-81
2021/11/16 02:58:58;;;;;;;37.45;32.03;;;;;;;;;;5054150;28;20222;-81
2021/11/16 03:01:26;;;;;;;36.03;32.20;;;;;;;;;;5054183;28;20195;-82
2021/11/16 03:03:53;;;;;;;34.47;31.13;;;;;;;;;;5054103;28;20230;-82
2021/11/16 03:06:21;;;;;;;35.78;32.03;;;;;;;;;;5036053;28;20198;-81
2021/11/16 03:08:48;;;;;;;33.67;30.17;;;;;;;;;;5053805;28;20529;-81
2021/11/16 03:11:16;;;;;;;35.97;32.33;;;;;;;;;;5035993;28;20699;-81
2021/11/16 03:13:45;;;;;;;36.72;32.28;;;;;;;;;;5053692;28;20237;-81
2021/11/16 03:16:15;;;;;;;37.35;33.55;;;;;;;;;;5053992;28;20198;-81
2021/11/16 03:18:44;;;;;;;33.83;30.42;;;;;;;;;;5053731;28;20191;-82
2021/11/16 03:21:12;;;;;;;37.58;32.92;;;;;;;;;;5053886;28;20243;-82
2021/11/16 03:23:42;;;;;;;35.83;31.92;;;;;;;;;;5053808;28;20288;-82
2021/11/16 03:26:10;;;;;;;35.22;31.40;;;;;;;;;;5036152;28;20255;-81
2021/11/16 03:28:41;;;;;;;34.72;31.30;;;;;;;;;;5053570;28;20196;-82
2021/11/16 03:31:18;;;;;;;37.72;33.92;;;;;;;;;;5053650;28;20194;-81
2021/11/16 03:33:46;;;;;;;40.55;34.33;;;;;;;;;;5053698;28;20270;-81
2021/11/16 03:36:13;;;;;;;37.63;33.00;;;;;;;;;;5053591;28;20222;-81
2021/11/16 03:38:41;;;;;;;38.17;33.67;;;;;;;;;;5035713;28;20550;-81
2021/11/16 03:41:10;;;;;;;38.75;32.72;;;;;;;;;;5053135;28;20200;-81
2021/11/16 03:43:38;;;;;;;36.70;32.90;;;;;;;;;;5053125;28;20722;-81
2021/11/16 03:46:06;;;;;;;40.75;35.28;;;;;;;;;;5053336;28;20296;-81
2021/11/16 03:48:35;;;;;;;40.72;35.03;;;;;;;;;;5053393;28;20302;-81
2021/11/16 03:51:02;;;;;;;43.08;36.53;;;;;;;;;;5053162;28;20280;-81
2021/11/16 03:53:30;;;;;;;39.70;35.37;;;;;;;;;;5035082;28;20235;-81
2021/11/16 03:55:57;;;;;;;41.53;34.50;;;;;;;;;;5053332;28;20428;-81
2021/11/16 03:58:25;;;;;;;41.35;35.58;;;;;;;;;;5053247;28;20199;-81
2021/11/16 04:00:58;;;;;;;37.65;33.47;;;;;;;;;;5052963;28;20202;-81
2021/11/16 04:03:27;;;;;;;42.90;35.72;;;;;;;;;;5052772;28;20212;-81
2021/11/16 04:05:56;;;;;;;39.20;33.75;;;;;;;;;;5052726;28;20195;-81
2021/11/16 04:08:23;;;;;;;41.50;35.45;;;;;;;;;;5053123;28;20225;-81
2021/11/16 04:10:51;;;;;;;43.30;36.57;;;;;;;;;;5053022;28;20198;-81
2021/11/16 04:13:19;;;;;;;39.60;34.75;;;;;;;;;;5052728;28;20509;-81
2021/11/16 04:15:47;;;;;;;41.28;35.20;;;;;;;;;;5052665;28;20644;-81
2021/11/16 04:18:15;;;;;;;38.05;33.95;;;;;;;;;;5052897;28;20193;-81
2021/11/16 04:20:44;;;;;;;39.25;35.00;;;;;;;;;;5052698;28;20195;-81
2021/11/16 04:23:14;;;;;;;47.35;37.40;;;;;;;;;;5052557;28;20219;-81
2021/11/16 04:25:42;;;;;;;41.15;36.83;;;;;;;;;;5052901;28;20544;-81
2021/11/16 04:28:10;;;;;;;40.78;36.03;;;;;;;;;;5052820;28;20535;-81
2021/11/16 04:30:38;;;;;;;42.67;35.63;;;;;;;;;;5052408;28;20665;-80
2021/11/16 04:33:06;;;;;;;42.05;36.05;;;;;;;;;;5052539;28;20242;-81
2021/11/16 04:35:33;;;;;;;43.17;36.00;;;;;;;;;;5052537;28;20193;-80
2021/11/16 04:38:02;;;;;;;42.58;36.63;;;;;;;;;;5052812;28;20218;-81
2021/11/16 04:40:33;;;;;;;42.50;36.28;;;;;;;;;;5052324;28;20614;-81
2021/11/16 04:43:03;;;;;;;43.58;35.55;;;;;;;;;;5052624;28;20213;-81
2021/11/16 04:45:31;;;;;;;46.72;37.28;;;;;;;;;;5052634;28;20197;-81
2021/11/16 04:48:01;;;;;;;47.67;38.83;;;;;;;;;;5052469;28;20589;-80
2021/11/16 04:50:40;;;;;;;41.03;34.45;;;;;;;;;;5052250;28;20448;-80
2021/11/16 04:59:28;;;;;;;45.67;38.10;;;;;;;;;;5055212;28;20419;-81
2021/11/16 05:04:24;;;;;;;42.15;34.42;;;;;;;;;;4975260;28;20654;-81
2021/11/16 05:06:54;;;;;;;42.75;35.85;;;;;;;;;;4975211;28;20212;-81
2021/11/16 05:09:21;;;;;;;39.13;33.93;;;;;;;;;;4975171;28;20222;-81
2021/11/16 05:11:51;;;;;;;40.10;35.00;;;;;;;;;;4974944;28;20493;-80
2021/11/16 05:14:18;;;;;;;37.63;33.67;;;;;;;;;;4975092;28;20423;-82
2021/11/16 05:16:46;;;;;;;38.50;34.05;;;;;;;;;;4974900;28;20194;-81
2021/11/16 05:19:13;;;;;;;37.40;33.40;;;;;;;;;;4975169;28;20661;-81
2021/11/16 05:21:41;;;;;;;38.72;34.65;;;;;;;;;;4974897;28;20441;-81
2021/11/16 05:24:08;;;;;;;41.13;35.43;;;;;;;;;;4974815;28;20267;-80
2021/11/16 05:26:36;;;;;;;41.00;34.40;;;;;;;;;;4974912;28;21001;-81
2021/11/16 05:29:05;;;;;;;45.10;35.83;;;;;;;;;;4974884;28;20438;-81
2021/11/16 05:31:32;;;;;;;42.38;35.47;;;;;;;;;;4974653;28;20436;-81
2021/11/16 05:33:59;;;;;;;43.00;34.63;;;;;;;;;;4974800;28;20773;-81
2021/11/16 05:36:27;;;;;;;38.30;34.33;;;;;;;;;;4974721;28;20928;-81
2021/11/16 05:38:54;;;;;;;38.05;33.70;;;;;;;;;;5026138;28;20210;-81
2021/11/16 05:41:22;;;;;;;44.40;35.58;;;;;;;;;;5055463;28;20606;-81
2021/11/16 05:43:49;;;;;;;36.88;32.78;;;;;;;;;;5055708;28;20226;-80
2021/11/16 05:46:21;;;;;;;37.58;33.55;;;;;;;;;;5055259;28;20217;-81
2021/11/16 05:48:48;;;;;;;38.67;33.13;;;;;;;;;;5055678;28;20250;-80
2021/11/16 05:51:16;;;;;;;38.03;32.42;;;;;;;;;;5055720;28;20415;-81
2021/11/16 05:53:45;;;;;;;36.90;32.88;;;;;;;;;;5055308;28;20632;-81
2021/11/16 05:56:13;;;;;;;37.53;33.80;;;;;;;;;;5037615;28;20203;-81
2021/11/16 05:58:41;;;;;;;38.83;34.60;;;;;;;;;;5055445;28;20201;-81
2021/11/16 06:01:08;;;;;;;40.33;35.87;;;;;;;;;;5055391;28;20246;-81
2021/11/16 06:03:37;;;;;;;36.72;33.10;;;;;;;;;;5054589;28;20948;-81
2021/11/16 06:06:07;;;;;;;36.55;32.67;;;;;;;;;;5055321;28;20194;-80
2021/11/16 06:08:36;;;;;;;37.78;33.75;;;;;;;;;;5055330;28;20199;-81
2021/11/16 06:11:04;;;;;;;40.28;35.40;;;;;;;;;;5054998;28;20277;-81
2021/11/16 06:13:31;;;;;;;38.03;33.83;;;;;;;;;;5055352;28;20188;-80
2021/11/16 06:15:58;;;;;;;42.83;34.80;;;;;;;;;;5054808;28;20417;-79
2021/11/16 06:18:27;;;;;;;44.75;34.50;;;;;;;;;;5054818;28;20444;-81
2021/11/16 06:20:56;;;;;;;41.53;34.47;;;;;;;;;;5055023;28;20252;-81
2021/11/16 06:23:23;;;;;;;39.97;34.10;;;;;;;;;;5054816;28;20184;-80
2021/11/16 06:25:50;;;;;;;42.97;34.30;;;;;;;;;;5054828;28;20195;-80
2021/11/16 06:28:18;;;;;;;41.05;34.45;;;;;;;;;;5054797;28;20214;-81
2021/11/16 06:30:45;;;;;;;45.03;35.15;;;;;;;;;;5054865;28;20197;-80
2021/11/16 06:33:13;;;;;;;42.22;35.20;;;;;;;;;;5054893;28;20542;-80
2021/11/16 06:35:40;;;;;;;40.08;35.63;;;;;;;;;;5054817;28;20196;-81
2021/11/16 06:38:09;;;;;;;40.03;34.83;;;;;;;;;;5054474;28;20205;-82
2021/11/16 06:40:37;;;;;;;42.72;35.28;;;;;;;;;;5054454;28;20241;-81
2021/11/16 06:43:04;;;;;;;44.03;34.10;;;;;;;;;;5054362;28;20492;-81
2021/11/16 06:45:33;;;;;;;40.65;35.63;;;;;;;;;;5054154;28;20222;-81
2021/11/16 06:48:00;;;;;;;49.10;35.65;;;;;;;;;;5054534;28;20201;-80
2021/11/16 06:50:28;;;;;;;44.67;35.88;;;;;;;;;;5054538;28;20199;-85
2021/11/16 06:52:55;;;;;;;48.75;36.75;;;;;;;;;;5059493;28;20232;-79
2021/11/16 06:55:24;;;;;;;45.53;34.88;;;;;;;;;;5054473;28;20200;-81
2021/11/16 06:57:51;;;;;;;45.10;34.80;;;;;;;;;;5054366;28;20614;-81
2021/11/16 07:00:18;;;;;;;37.85;33.85;;;;;;;;;;5054531;28;20193;-80
2021/11/16 07:02:55;;;;;;;44.92;36.00;;;;;;;;;;5054129;28;20201;-81
2021/11/16 07:05:23;;;;;;;40.05;35.13;;;;;;;;;;5054406;28;20225;-81
2021/11/16 07:07:50;;;;;;;43.20;34.33;;;;;;;;;;5054340;28;20223;-81
2021/11/16 07:10:20;;;;;;;42.80;34.25;;;;;;;;;;5053997;28;20200;-81
2021/11/16 07:12:49;;;;;;;45.38;35.97;;;;;;;;;;5053952;28;20668;-81
2021/11/16 07:15:21;;;;;;;41.20;34.05;;;;;;;;;;5053651;28;20195;-81
2021/11/16 07:17:48;;;;;;;42.25;33.60;;;;;;;;;;5054194;28;20197;-81
2021/11/16 07:20:16;;;;;;;48.00;35.17;;;;;;;;;;5054483;28;20190;-81
2021/11/16 07:22:43;;;;;;;41.53;36.33;;;;;;;;;;5053842;28;20580;-80
2021/11/16 07:25:11;;;;;;;40.13;33.05;;;;;;;;;;5054432;28;20220;-81
2021/11/16 07:27:40;;;;;;;40.13;35.67;;;;;;;;;;5054944;28;20203;-81
2021/11/16 07:30:10;;;;;;;42.00;36.15;;;;;;;;;;5053725;28;20222;-81
2021/11/16 07:32:45;;;;;;;45.22;36.45;;;;;;;;;;5053895;28;20275;-81
2021/11/16 07:35:15;;;;;;;42.63;37.45;;;;;;;;;;5053425;28;20697;-80
2021/11/16 07:37:43;;;;;;;42.65;33.33;;;;;;;;;;5035573;28;20245;-80
2021/11/16 07:40:13;;;;;;;47.65;34.72;;;;;;;;;;5053496;28;20191;-80
2021/11/16 07:42:48;;;;;;;39.75;34.80;;;;;;;;;;5053332;28;20331;-80
2021/11/16 07:45:18;;;;;;;43.77;34.20;;;;;;;;;;5053684;28;20628;-80
2021/11/16 07:47:48;;;;;;;45.85;34.45;;;;;;;;;;5053572;28;20548;-81
2021/11/16 07:50:17;;;;;;;42.40;34.63;;;;;;;;;;5053294;28;20650;-81
2021/11/16 07:52:45;;;;;;;44.13;35.17;;;;;;;;;;5053599;28;20235;-81
2021/11/16 07:55:19;;;;;;;38.93;34.67;;;;;;;;;;5053917;28;20619;-85
2021/11/16 07:57:53;;;;;;;46.22;35.70;;;;;;;;;;5053630;28;20485;-87
2021/11/16 08:00:27;;;;;;;43.17;34.30;;;;;;;;;;5061480;28;20653;-85
2021/11/16 08:03:02;;;;;;;43.13;35.08;;;;;;;;;;5068617;28;20421;-84
2021/11/16 08:05:36;;;;;;;42.43;34.80;;;;;;;;;;5038137;28;20313;-86
2021/11/16 08:08:19;;;;;;;46.28;34.05;;;;;;;;;;5053673;28;20854;-78
2021/11/16 08:10:49;;;;;;;46.33;34.75;;;;;;;;;;5054136;28;20226;-78
2021/11/16 08:13:26;;;;;;;45.58;35.88;;;;;;;;;;5053729;28;20220;-77
2021/11/16 08:15:55;;;;;;;44.10;37.03;;;;;;;;;;5052768;28;20216;-77
2021/11/16 08:18:22;;;;;;;43.97;34.83;;;;;;;;;;5052545;28;20210;-77
2021/11/16 08:21:00;;;;;;;40.13;35.75;;;;;;;;;;5052905;28;20205;-77
2021/11/16 08:23:28;;;;;;;44.40;36.65;;;;;;;;;;5053080;28;20230;-78
2021/11/16 08:25:57;;;;;;;44.25;33.33;;;;;;;;;;5053953;28;20635;-78
2021/11/16 08:28:25;;;;;;;40.60;35.55;;;;;;;;;;5072233;28;20585;-78
2021/11/16 08:30:53;;;;;;;43.78;34.80;;;;;;;;;;5072512;28;20709;-77
2021/11/16 08:33:22;;;;;;;37.85;34.10;;;;;;;;;;5054711;28;20294;-83
2021/11/16 08:35:51;;;;;;;42.50;34.80;;;;;;;;;;5072548;28;20200;-80
2021/11/16 08:38:18;;;;;;;43.88;34.85;;;;;;;;;;5072380;28;20229;-78
2021/11/16 08:40:46;;;;;;;48.55;35.80;;;;;;;;;;5072459;28;20266;-78
2021/11/16 08:43:16;;;;;;;37.83;33.25;;;;;;;;;;5072202;28;20206;-77
2021/11/16 08:45:47;;;;;;;42.28;35.33;;;;;;;;;;5065267;28;20254;-85
2021/11/16 08:48:16;;;;;;;42.63;34.13;;;;;;;;;;5073075;28;20219;-85
2021/11/16 08:50:47;;;;;;;40.13;33.17;;;;;;;;;;5073187;28;20197;-84
2021/11/16 08:53:16;;;;;;;41.30;35.20;;;;;;;;;;5073058;28;20237;-84
2021/11/16 08:55:44;;;;;;;40.72;34.38;;;;;;;;;;5055118;28;20327;-80
2021/11/16 08:58:13;;;;;;;45.15;37.28;;;;;;;;;;5052387;28;20189;-82
2021/11/16 09:00:41;;;;;;;42.25;35.22;;;;;;;;;;5052558;28;20197;-79
2021/11/16 09:03:10;;;;;;;45.35;36.42;;;;;;;;;;5066082;28;20186;-77
2021/11/16 09:05:41;;;;;;;46.97;35.97;;;;;;;;;;5072152;28;20222;-77
2021/11/16 09:08:14;;;;;;;39.55;33.05;;;;;;;;;;5072112;28;20197;-77
2021/11/16 09:10:43;;;;;;;45.25;34.13;;;;;;;;;;5072065;28;20641;-77
2021/11/16 09:13:11;;;;;;;41.90;31.85;;;;;;;;;;5072445;28;20251;-77
2021/11/16 09:15:41;;;;;;;35.75;31.98;;;;;;;;;;5072199;28;20187;-77
2021/11/16 09:18:12;;;;;;;38.28;31.73;;;;;;;;;;5072316;28;20245;-78
2021/11/16 09:20:40;;;;;;;38.40;33.75;;;;;;;;;;5072362;28;20190;-76
2021/11/16 09:23:07;;;;;;;34.75;31.10;;;;;;;;;;5072009;28;20767;-76
2021/11/16 09:25:36;;;;;;;37.05;32.97;;;;;;;;;;5072467;28;20261;-77
2021/11/16 09:28:10;;;;;;;39.17;34.88;;;;;;;;;;5072127;28;20560;-77
2021/11/16 09:30:39;;;;;;;38.78;34.58;;;;;;;;;;5076464;28;20206;-77
2021/11/16 09:33:08;;;;;;;42.25;35.30;;;;;;;;;;5073809;28;20257;-77
2021/11/16 09:35:58;;;;;;;56.67;37.20;;;;;;;;;;5073646;28;20251;-77
2021/11/16 09:38:44;;;;;;;39.97;35.60;;;;;;;;;;5067368;28;20207;-77
2021/11/16 09:41:14;;;;;;;41.53;32.50;;;;;;;;;;5075577;28;20443;-77
2021/11/16 09:43:42;;;;;;;43.35;32.50;;;;;;;;;;5076048;28;20436;-77
2021/11/16 09:46:10;;;;;;;41.72;35.53;;;;;;;;;;5075314;28;20695;-77
2021/11/16 09:48:37;;;;;;;44.78;34.28;;;;;;;;;;5075556;28;20666;-77
2021/11/16 09:51:19;;;;;;;42.55;34.95;;;;;;;;;;5075457;28;20202;-77
2021/11/16 09:53:47;;;;;;;43.47;35.13;;;;;;;;;;5075321;28;20238;-77
2021/11/16 09:56:19;;;;;;;36.97;32.75;;;;;;;;;;5075855;28;20198;-77
2021/11/16 09:58:47;;;;;;;37.22;32.55;;;;;;;;;;5075466;28;20248;-77
2021/11/16 10:01:22;;;;;;;38.45;32.15;;;;;;;;;;5075183;28;20195;-77
2021/11/16 10:03:52;;;;;;;36.92;32.83;;;;;;;;;;5075103;28;20196;-77
2021/11/16 10:06:19;;;;;;;41.30;33.95;;;;;;;;;;5075150;28;20626;-77
2021/11/16 10:08:46;;;;;;;40.15;33.45;;;;;;;;;;5057508;28;20193;-77
2021/11/16 10:11:14;;;;;;;36.00;31.83;;;;;;;;;;5075089;28;20190;-77
2021/11/16 10:13:43;;;;;;;41.75;35.00;;;;;;;;;;5075227;28;20194;-77
2021/11/16 10:16:10;;;;;;;37.70;33.05;;;;;;;;;;5074994;28;20192;-78
2021/11/16 10:18:39;;;;;;;34.88;31.00;;;;;;;;;;5075185;28;20188;-78
2021/11/16 10:21:07;;;;;;;40.70;33.20;;;;;;;;;;5075167;28;20201;-77
2021/11/16 10:23:36;;;;;;;37.92;33.92;;;;;;;;;;5075218;28;20189;-78
2021/11/16 10:26:04;;;;;;;38.22;33.58;;;;;;;;;;5074709;28;20226;-77
2021/11/16 10:28:33;;;;;;;42.30;33.07;;;;;;;;;;5074836;28;20198;-77
2021/11/16 10:31:02;;;;;;;44.42;34.88;;;;;;;;;;5074925;28;20448;-77
2021/11/16 10:33:33;;;;;;;40.08;35.92;;;;;;;;;;5074484;28;20226;-77
2021/11/16 10:36:01;;;;;;;39.20;34.95;;;;;;;;;;5074743;28;20194;-77
2021/11/16 10:38:29;;;;;;;36.72;32.03;;;;;;;;;;5074475;28;20197;-77
2021/11/16 10:40:58;;;;;;;44.63;35.20;;;;;;;;;;5056567;28;20207;-77
2021/11/16 10:43:33;;;;;;;38.23;33.37;;;;;;;;;;5056983;28;20191;-77
2021/11/16 10:46:03;;;;;;;39.95;33.47;;;;;;;;;;5074476;28;20480;-76
2021/11/16 10:48:31;;;;;;;37.92;33.85;;;;;;;;;;5074525;28;20201;-80
2021/11/16 10:50:59;;;;;;;36.38;32.35;;;;;;;;;;5073295;28;20191;-82
2021/11/16 10:53:27;;;;;;;38.37;32.83;;;;;;;;;;5074477;28;20266;-78
2021/11/16 10:55:56;;;;;;;35.47;31.40;;;;;;;;;;5074629;28;20441;-77
2021/11/16 10:58:26;;;;;;;31.98;28.98;;;;;;;;;;5074127;28;20191;-78
2021/11/16 11:00:55;;;;;;;34.63;31.02;;;;;;;;;;5073850;28;20206;-77
2021/11/16 11:03:26;;;;;;;36.47;31.40;;;;;;;;;;5074141;28;20198;-78
2021/11/16 11:05:56;;;;;;;32.75;29.42;;;;;;;;;;5074098;28;20469;-79
2021/11/16 11:08:41;;;;;;;36.67;31.60;;;;;;;;;;5073900;28;20257;-79
2021/11/16 11:11:20;;;;;;;41.10;30.77;;;;;;;;;;5056322;28;20442;-79
2021/11/16 11:13:48;;;;;;;37.78;33.20;;;;;;;;;;5074090;28;20821;-78
2021/11/16 11:16:16;;;;;;;41.42;33.45;;;;;;;;;;5074302;28;20219;-79
2021/11/16 11:18:48;;;;;;;35.10;31.30;;;;;;;;;;5074399;28;20191;-78
2021/11/16 11:21:31;;;;;;;36.15;31.48;;;;;;;;;;5074872;28;20898;-78
2021/11/16 11:24:00;;;;;;;36.30;32.40;;;;;;;;;;5076667;28;20689;-79
2021/11/16 11:26:33;;;;;;;33.65;30.25;;;;;;;;;;5074697;28;20581;-84
2021/11/16 11:29:17;;;;;;;37.63;33.65;;;;;;;;;;5073608;28;20265;-77
2021/11/16 11:31:44;;;;;;;43.25;35.13;;;;;;;;;;5073945;28;20294;-78
2021/11/16 11:34:14;;;;;;;53.13;33.20;;;;;;;;;;5073769;28;20188;-78
2021/11/16 11:36:41;;;;;;;38.47;34.25;;;;;;;;;;5073524;28;20206;-77
2021/11/16 11:39:19;;;;;;;36.83;32.13;;;;;;;;;;5073578;28;20223;-78
2021/11/16 11:41:54;;;;;;;34.97;31.42;;;;;;;;;;5073693;28;20187;-77
2021/11/16 11:44:22;;;;;;;35.77;31.93;;;;;;;;;;5073791;28;20209;-78
2021/11/16 11:46:51;;;;;;;36.50;32.58;;;;;;;;;;5073085;28;20492;-77
2021/11/16 11:49:20;;;;;;;35.47;31.67;;;;;;;;;;5073183;28;20190;-78
2021/11/16 11:51:48;;;;;;;41.03;33.77;;;;;;;;;;5075075;28;20445;-77
2021/11/16 11:54:16;;;;;;;41.27;33.30;;;;;;;;;;5073772;28;20477;-78
2021/11/16 11:56:45;;;;;;;37.07;33.13;;;;;;;;;;5073361;28;20456;-78
2021/11/16 11:59:15;;;;;;;40.80;35.33;;;;;;;;;;5079070;28;20413;-77
2021/11/16 12:01:43;;;;;;;47.83;35.63;;;;;;;;;;5078911;28;20425;-78
2021/11/16 12:04:11;;;;;;;42.93;34.90;;;;;;;;;;5075465;28;20445;-78
2021/11/16 12:06:40;;;;;;;40.57;35.07;;;;;;;;;;5074624;28;20477;-78
2021/11/16 12:09:09;;;;;;;45.10;36.37;;;;;;;;;;5075668;28;20446;-78
2021/11/16 12:11:36;;;;;;;45.45;35.38;;;;;;;;;;5075141;28;20416;-78
2021/11/16 12:14:08;;;;;;;40.37;34.07;;;;;;;;;;5076317;28;20214;-85
2021/11/16 12:16:39;;;;;;;41.87;34.60;;;;;;;;;;5056545;28;20430;-83
2021/11/16 12:19:07;;;;;;;38.13;33.03;;;;;;;;;;5076508;28;20890;-78
2021/11/16 12:21:36;;;;;;;39.93;34.57;;;;;;;;;;5074850;28;20935;-78
2021/11/16 12:24:06;;;;;;;38.03;33.77;;;;;;;;;;5074783;28;20902;-78
2021/11/16 12:26:36;;;;;;;46.07;35.53;;;;;;;;;;5074713;28;20479;-79
2021/11/16 12:29:14;;;;;;;42.38;34.33;;;;;;;;;;5079520;28;20419;-78
2021/11/16 12:31:42;;;;;;;46.80;38.20;;;;;;;;;;5089219;28;20177;-81
2021/11/16 12:34:10;;;;;;;40.30;35.90;;;;;;;;;;5089886;28;20188;-81
2021/11/16 12:36:50;;;;;;;42.13;34.43;;;;;;;;;;5087016;28;20254;-81
2021/11/16 12:39:20;;;;;;;40.30;34.97;;;;;;;;;;5075513;28;20439;-79
2021/11/16 12:41:50;;;;;;;45.20;35.25;;;;;;;;;;5075930;28;20415;-78
2021/11/16 12:44:18;;;;;;;38.50;34.25;;;;;;;;;;5075613;28;20284;-78
2021/11/16 12:46:46;;;;;;;36.83;32.92;;;;;;;;;;5073739;28;20226;-78
2021/11/16 12:49:31;;;;;;;37.17;32.85;;;;;;;;;;5073236;28;20659;-78
2021/11/16 12:51:59;;;;;;;37.97;33.55;;;;;;;;;;5073390;28;20197;-88
2021/11/16 12:54:29;;;;;;;36.20;32.40;;;;;;;;;;5073753;28;20184;-81
2021/11/16 12:57:17;;;;;;;41.28;31.80;;;;;;;;;;5073251;28;20413;-82
2021/11/16 12:59:52;;;;;;;35.03;31.45;;;;;;;;;;5073210;28;20555;-80
2021/11/16 13:02:21;;;;;;;33.97;30.37;;;;;;;;;;5072948;28;20202;-78
2021/11/16 13:04:51;;;;;;;35.50;31.73;;;;;;;;;;5072641;28;20420;-78
2021/11/16 13:07:19;;;;;;;32.80;29.47;;;;;;;;;;5072811;28;20876;-78
2021/11/16 13:09:49;;;;;;;34.20;30.77;;;;;;;;;;5072830;28;20931;-78
2021/11/16 13:12:34;;;;;;;34.65;30.95;;;;;;;;;;5072440;28;20648;-79
2021/11/16 13:15:03;;;;;;;36.63;31.58;;;;;;;;;;5076477;28;20199;-78
2021/11/16 13:17:51;;;;;;;36.77;32.90;;;;;;;;;;5076720;28;20192;-79
2021/11/16 13:20:18;;;;;;;35.17;31.45;;;;;;;;;;5076188;28;20962;-79
2021/11/16 13:22:47;;;;;;;33.45;29.88;;;;;;;;;;5076442;28;20190;-78
2021/11/16 13:25:29;;;;;;;33.40;29.87;;;;;;;;;;5076497;28;20188;-79
2021/11/16 13:27:59;;;;;;;33.90;30.60;;;;;;;;;;5075167;28;20459;-79
2021/11/16 13:30:26;;;;;;;32.65;29.75;;;;;;;;;;5076340;28;20749;-79
2021/11/16 13:32:54;;;;;;;35.80;31.83;;;;;;;;;;5076944;28;20599;-78
2021/11/16 13:35:21;;;;;;;38.20;34.13;;;;;;;;;;5075718;28;20191;-78
2021/11/16 13:37:51;;;;;;;35.42;31.73;;;;;;;;;;5077394;28;20411;-79
2021/11/16 13:40:22;;;;;;;35.35;31.45;;;;;;;;;;5077296;28;20199;-78
2021/11/16 13:42:51;;;;;;;36.30;32.60;;;;;;;;;;5077355;28;20665;-78
2021/11/16 13:45:21;;;;;;;35.80;32.10;;;;;;;;;;5077914;28;20456;-79
2021/11/16 13:47:50;;;;;;;33.90;30.30;;;;;;;;;;5078049;28;20218;-78
2021/11/16 13:50:20;;;;;;;34.57;31.13;;;;;;;;;;5075768;28;20504;-79
2021/11/16 13:52:48;;;;;;;34.60;31.17;;;;;;;;;;5074639;28;20503;-78
2021/11/16 13:55:17;;;;;;;36.00;32.30;;;;;;;;;;5077067;28;20424;-78
2021/11/16 13:57:46;;;;;;;37.42;31.52;;;;;;;;;;5075776;28;20445;-78
2021/11/16 14:00:15;;;;;;;34.90;31.50;;;;;;;;;;5075695;28;20191;-78
2021/11/16 14:02:50;;;;;;;34.35;31.20;;;;;;;;;;5076241;28;20191;-78
2021/11/16 14:05:18;;;;;;;35.23;31.40;;;;;;;;;;5077258;28;20281;-78
2021/11/16 14:07:52;;;;;;;35.45;32.03;;;;;;;;;;5075231;28;20458;-80
2021/11/16 14:10:20;;;;;;;33.10;30.05;;;;;;;;;;5075850;28;20187;-79
2021/11/16 14:12:48;;;;;;;36.60;32.80;;;;;;;;;;5075635;28;20188;-79
2021/11/16 14:15:22;;;;;;;34.60;31.42;;;;;;;;;;5076061;28;20207;-79
2021/11/16 14:18:04;;;;;;;35.23;31.67;;;;;;;;;;5076953;28;20626;-79
2021/11/16 14:20:34;;;;;;;35.37;31.97;;;;;;;;;;5072826;28;21001;-80
2021/11/16 14:23:17;;;;;;;36.20;32.37;;;;;;;;;;5076544;28;20433;-79
2021/11/16 14:25:45;;;;;;;36.13;32.73;;;;;;;;;;5072787;28;20996;-79
2021/11/16 14:28:15;;;;;;;34.93;31.50;;;;;;;;;;5077000;28;20983;-79
2021/11/16 14:30:42;;;;;;;46.30;32.97;;;;;;;;;;5076592;28;20441;-79
2021/11/16 14:33:11;;;;;;;35.43;31.70;;;;;;;;;;5076753;28;20189;-79
2021/11/16 14:35:44;;;;;;;35.70;32.15;;;;;;;;;;5077220;28;20886;-79
2021/11/16 14:38:11;;;;;;;37.53;33.72;;;;;;;;;;5076353;28;20202;-79